createdAt,value
2022-08-21T00:00:20.954Z,1.10
2022-08-21T00:00:56.077Z,0.90
2022-08-21T00:01:29.507Z,0.80
2022-08-21T00:02:02.242Z,0.77
2022-08-21T00:02:37.230Z,1.10
2022-08-21T00:03:11.154Z,0.87
2022-08-21T00:03:46.157Z,1.00
2022-08-21T00:04:22.439Z,0.93
2022-08-21T00:04:57.835Z,0.93
2022-08-21T00:05:37.481Z,0.70
2022-08-21T00:06:14.106Z,0.97
2022-08-21T00:06:46.539Z,1.03
2022-08-21T00:07:22.235Z,0.90
2022-08-21T00:07:57.666Z,1.10
2022-08-21T00:08:30.072Z,1.00
2022-08-21T00:09:06.686Z,1.20
2022-08-21T00:09:39.306Z,0.90
2022-08-21T00:10:12.600Z,1.17
2022-08-21T00:10:48.062Z,0.90
2022-08-21T00:11:20.502Z,0.80
2022-08-21T00:11:52.881Z,1.20
2022-08-21T00:12:28.330Z,1.00
2022-08-21T00:13:01.752Z,0.87
2022-08-21T00:13:34.537Z,1.00
2022-08-21T00:14:11.913Z,1.10
2022-08-21T00:14:44.498Z,1.07
2022-08-21T00:15:21.930Z,1.10
2022-08-21T00:15:57.064Z,1.00
2022-08-21T00:16:29.422Z,1.00
2022-08-21T00:17:02.497Z,1.20
2022-08-21T00:17:37.467Z,1.10
2022-08-21T00:18:11.722Z,1.20
2022-08-21T00:18:46.738Z,1.37
2022-08-21T00:19:19.087Z,1.30
2022-08-21T00:19:54.041Z,1.00
2022-08-21T00:20:29.441Z,1.90
2022-08-21T00:21:04.675Z,1.40
2022-08-21T00:21:37.898Z,1.60
2022-08-21T00:22:12.860Z,1.67
2022-08-21T00:22:46.494Z,1.93
2022-08-21T00:23:18.961Z,1.30
2022-08-21T00:23:53.875Z,1.10
2022-08-21T00:24:26.558Z,1.10
2022-08-21T00:24:59.160Z,1.53
2022-08-21T00:25:34.471Z,1.10
2022-08-21T00:26:07.849Z,1.40
2022-08-21T00:26:40.234Z,1.47
2022-08-21T00:27:15.273Z,1.40
2022-08-21T00:27:47.625Z,1.20
2022-08-21T00:28:20.240Z,1.20
2022-08-21T00:28:55.229Z,1.43
2022-08-21T00:29:27.877Z,1.70
2022-08-21T00:30:00.290Z,1.00
2022-08-21T00:30:35.455Z,1.30
2022-08-21T00:31:07.836Z,1.20
2022-08-21T00:31:40.507Z,1.30
2022-08-21T00:32:15.465Z,1.93
2022-08-21T00:32:47.781Z,2.07
2022-08-21T00:33:20.384Z,1.40
2022-08-21T00:34:00.636Z,1.30
2022-08-21T00:34:33.554Z,1.50
2022-08-21T00:35:09.679Z,1.50
2022-08-21T00:35:44.249Z,1.43
2022-08-21T00:36:19.555Z,1.40
2022-08-21T00:36:54.581Z,1.60
2022-08-21T00:37:26.953Z,1.63
2022-08-21T00:37:59.493Z,1.37
2022-08-21T00:38:34.910Z,1.80
2022-08-21T00:39:08.416Z,1.40
2022-08-21T00:39:40.801Z,1.70
2022-08-21T00:40:16.609Z,1.80
2022-08-21T00:40:54.114Z,1.67
2022-08-21T00:41:38.177Z,1.67
2022-08-21T00:42:11.468Z,1.90
2022-08-21T00:42:50.107Z,2.10
2022-08-21T00:43:28.913Z,1.57
2022-08-21T00:44:01.410Z,1.70
2022-08-21T00:44:33.986Z,2.20
2022-08-21T00:45:10.969Z,1.80
2022-08-21T00:45:45.061Z,1.90
2022-08-21T00:46:17.546Z,1.90
2022-08-21T00:46:52.490Z,2.00
2022-08-21T00:47:24.846Z,2.27
2022-08-21T00:47:57.598Z,2.67
2022-08-21T00:48:32.547Z,2.63
2022-08-21T00:49:05.489Z,2.57
2022-08-21T00:49:38.266Z,3.43
2022-08-21T00:50:15.039Z,3.37
2022-08-21T00:50:56.022Z,3.87
2022-08-21T00:51:38.456Z,3.90
2022-08-21T00:52:17.074Z,3.50
2022-08-21T00:52:49.675Z,3.63
2022-08-21T00:53:23.572Z,3.40
2022-08-21T00:54:01.167Z,3.50
2022-08-21T00:54:35.721Z,4.20
2022-08-21T00:55:12.034Z,3.63
2022-08-21T00:55:44.978Z,3.90
2022-08-21T00:56:17.733Z,3.40
2022-08-21T00:56:55.411Z,3.30
2022-08-21T00:57:30.865Z,3.13
2022-08-21T00:58:04.833Z,2.97
2022-08-21T00:58:40.538Z,2.50
2022-08-21T00:59:15.483Z,2.43
2022-08-21T00:59:50.078Z,2.93
2022-08-21T01:00:29.040Z,2.87
2022-08-21T01:01:06.809Z,3.03
2022-08-21T01:01:40.875Z,2.47
2022-08-21T01:02:16.310Z,2.60
2022-08-21T01:02:49.077Z,2.70
2022-08-21T01:03:24.016Z,2.70
2022-08-21T01:03:59.037Z,2.40
2022-08-21T01:04:31.554Z,2.07
2022-08-21T01:05:04.939Z,2.23
2022-08-21T01:05:37.357Z,2.40
2022-08-21T01:06:13.031Z,2.40
2022-08-21T01:06:48.078Z,2.60
2022-08-21T01:07:21.165Z,2.00
2022-08-21T01:07:58.128Z,2.60
2022-08-21T01:08:30.806Z,2.90
2022-08-21T01:09:03.469Z,2.23
2022-08-21T01:09:38.794Z,2.40
2022-08-21T01:10:20.551Z,2.20
2022-08-21T01:11:00.522Z,2.70
2022-08-21T01:11:35.616Z,3.20
2022-08-21T01:12:08.523Z,2.73
2022-08-21T01:12:44.357Z,2.80
2022-08-21T01:13:18.278Z,2.50
2022-08-21T01:13:53.038Z,2.27
2022-08-21T01:14:29.638Z,1.90
2022-08-21T01:15:03.194Z,2.00
2022-08-21T01:15:38.752Z,2.47
2022-08-21T01:16:13.986Z,2.10
2022-08-21T01:16:49.385Z,2.33
2022-08-21T01:17:22.638Z,2.00
2022-08-21T01:17:57.937Z,2.00
2022-08-21T01:18:30.597Z,2.10
2022-08-21T01:19:03.663Z,1.70
2022-08-21T01:19:38.583Z,1.90
2022-08-21T01:20:12.706Z,2.13
2022-08-21T01:20:46.889Z,2.13
2022-08-21T01:21:28.130Z,1.50
2022-08-21T01:22:00.951Z,1.87
2022-08-21T01:22:33.717Z,1.57
2022-08-21T01:23:09.930Z,1.83
2022-08-21T01:23:44.949Z,1.90
2022-08-21T01:24:19.917Z,1.93
2022-08-21T01:24:52.325Z,1.80
2022-08-21T01:25:24.925Z,2.00
2022-08-21T01:25:59.961Z,1.87
2022-08-21T01:26:35.638Z,1.47
2022-08-21T01:27:08.323Z,1.80
2022-08-21T01:27:43.280Z,1.60
2022-08-21T01:28:16.387Z,1.50
2022-08-21T01:28:54.170Z,1.37
2022-08-21T01:29:31.956Z,1.87
2022-08-21T01:30:10.998Z,2.10
2022-08-21T01:30:47.929Z,1.80
2022-08-21T01:31:26.320Z,2.30
2022-08-21T01:31:59.245Z,2.00
2022-08-21T01:32:34.475Z,2.10
2022-08-21T01:33:06.814Z,2.00
2022-08-21T01:33:39.190Z,1.70
2022-08-21T01:34:14.677Z,2.00
2022-08-21T01:34:49.061Z,2.03
2022-08-21T01:35:21.906Z,2.00
2022-08-21T01:35:57.575Z,1.83
2022-08-21T01:36:33.146Z,1.90
2022-08-21T01:37:05.854Z,1.97
2022-08-21T01:37:38.929Z,1.90
2022-08-21T01:38:13.861Z,1.90
2022-08-21T01:38:46.258Z,2.20
2022-08-21T01:39:18.958Z,1.63
2022-08-21T01:39:54.631Z,1.90
2022-08-21T01:40:27.274Z,1.83
2022-08-21T01:40:59.707Z,1.70
2022-08-21T01:41:34.935Z,1.80
2022-08-21T01:42:08.047Z,1.77
2022-08-21T01:42:40.734Z,1.90
2022-08-21T01:43:15.922Z,1.50
2022-08-21T01:43:56.207Z,1.20
2022-08-21T01:44:28.861Z,1.47
2022-08-21T01:45:04.175Z,1.60
2022-08-21T01:45:36.577Z,1.77
2022-08-21T01:46:09.125Z,1.50
2022-08-21T01:46:41.469Z,1.70
2022-08-21T01:47:18.683Z,1.90
2022-08-21T01:47:51.037Z,1.60
2022-08-21T01:48:23.419Z,1.60
2022-08-21T01:48:58.489Z,1.30
2022-08-21T01:49:30.951Z,1.60
2022-08-21T01:50:04.595Z,1.57
2022-08-21T01:50:40.535Z,1.70
2022-08-21T01:51:13.175Z,1.53
2022-08-21T01:51:48.101Z,1.50
2022-08-21T01:52:23.054Z,1.07
2022-08-21T01:52:55.467Z,1.33
2022-08-21T01:53:33.338Z,1.20
2022-08-21T01:54:08.708Z,1.40
2022-08-21T01:54:42.420Z,1.50
2022-08-21T01:55:15.403Z,1.30
2022-08-21T01:55:50.362Z,1.20
2022-08-21T01:56:22.734Z,1.00
2022-08-21T01:56:55.453Z,0.90
2022-08-21T01:57:30.569Z,1.17
2022-08-21T01:58:02.940Z,1.03
2022-08-21T01:58:35.292Z,1.30
2022-08-21T01:59:11.265Z,1.40
2022-08-21T01:59:43.582Z,1.40
2022-08-21T02:00:19.167Z,0.90
2022-08-21T02:00:54.535Z,1.30
2022-08-21T02:01:26.981Z,1.27
2022-08-21T02:02:01.975Z,1.10
2022-08-21T02:02:34.350Z,0.97
2022-08-21T02:03:07.061Z,1.00
2022-08-21T02:03:42.633Z,0.93
2022-08-21T02:04:15.054Z,1.20
2022-08-21T02:04:47.471Z,1.17
2022-08-21T02:05:23.058Z,0.90
2022-08-21T02:05:55.818Z,1.20
2022-08-21T02:06:28.415Z,0.90
2022-08-21T02:07:07.080Z,0.90
2022-08-21T02:07:45.891Z,1.00
2022-08-21T02:08:24.132Z,0.80
2022-08-21T02:08:56.492Z,1.20
2022-08-21T02:09:29.598Z,1.30
2022-08-21T02:10:05.222Z,1.30
2022-08-21T02:10:37.525Z,1.23
2022-08-21T02:11:09.866Z,1.43
2022-08-21T02:11:45.301Z,1.23
2022-08-21T02:12:17.695Z,1.40
2022-08-21T02:12:50.792Z,1.40
2022-08-21T02:13:25.778Z,1.20
2022-08-21T02:13:58.206Z,1.33
2022-08-21T02:14:32.922Z,1.23
2022-08-21T02:15:07.142Z,1.00
2022-08-21T02:15:42.043Z,0.93
2022-08-21T02:16:17.306Z,1.30
2022-08-21T02:16:51.894Z,1.10
2022-08-21T02:17:40.072Z,0.90
2022-08-21T02:18:15.378Z,1.00
2022-08-21T02:18:49.108Z,0.80
2022-08-21T02:19:21.402Z,0.90
2022-08-21T02:19:53.830Z,0.93
2022-08-21T02:20:32.382Z,1.00
2022-08-21T02:21:05.753Z,1.20
2022-08-21T02:21:38.091Z,1.20
2022-08-21T02:22:15.651Z,1.20
2022-08-21T02:22:47.942Z,0.73
2022-08-21T02:23:20.279Z,0.80
2022-08-21T02:24:02.264Z,1.30
2022-08-21T02:24:34.573Z,1.43
2022-08-21T02:25:08.091Z,1.70
2022-08-21T02:25:43.786Z,1.30
2022-08-21T02:26:16.142Z,0.90
2022-08-21T02:26:48.471Z,1.23
2022-08-21T02:27:26.128Z,1.10
2022-08-21T02:28:03.256Z,1.03
2022-08-21T02:28:36.626Z,1.00
2022-08-21T02:29:09.197Z,1.03
2022-08-21T02:29:44.155Z,0.87
2022-08-21T02:30:18.258Z,1.00
2022-08-21T02:30:50.785Z,1.10
2022-08-21T02:31:27.183Z,0.80
2022-08-21T02:31:59.854Z,0.70
2022-08-21T02:32:32.189Z,0.63
2022-08-21T02:33:07.598Z,0.70
2022-08-21T02:33:40.482Z,0.70
2022-08-21T02:34:12.793Z,0.63
2022-08-21T02:34:47.728Z,0.77
2022-08-21T02:35:20.590Z,0.70
2022-08-21T02:35:54.184Z,0.90
2022-08-21T02:36:29.463Z,0.80
2022-08-21T02:37:01.795Z,0.90
2022-08-21T02:37:44.418Z,0.80
2022-08-21T02:38:21.699Z,0.60
2022-08-21T02:38:54.415Z,0.80
2022-08-21T02:39:27.289Z,0.70
2022-08-21T02:40:03.973Z,0.73
2022-08-21T02:40:38.778Z,1.07
2022-08-21T02:41:20.219Z,0.70
2022-08-21T02:41:52.531Z,0.90
2022-08-21T02:42:25.034Z,0.70
2022-08-21T02:42:57.512Z,0.80
2022-08-21T02:43:32.561Z,1.10
2022-08-21T02:44:05.026Z,0.90
2022-08-21T02:44:37.342Z,0.60
2022-08-21T02:45:12.887Z,0.80
2022-08-21T02:45:46.903Z,1.20
2022-08-21T02:46:21.450Z,1.20
2022-08-21T02:46:56.624Z,1.03
2022-08-21T02:47:28.965Z,1.07
2022-08-21T02:48:04.899Z,1.10
2022-08-21T02:48:40.894Z,0.87
2022-08-21T02:49:13.206Z,1.00
2022-08-21T02:49:46.450Z,1.00
2022-08-21T02:50:24.265Z,1.00
2022-08-21T02:51:00.876Z,0.90
2022-08-21T02:51:35.874Z,0.80
2022-08-21T02:52:08.190Z,0.90
2022-08-21T02:52:43.162Z,0.90
2022-08-21T02:53:19.825Z,0.90
2022-08-21T02:53:52.202Z,1.27
2022-08-21T02:54:24.590Z,0.87
2022-08-21T02:54:59.542Z,1.10
2022-08-21T02:55:33.450Z,1.10
2022-08-21T02:56:08.542Z,1.00
2022-08-21T02:56:43.630Z,1.10
2022-08-21T02:57:15.990Z,0.83
2022-08-21T02:57:48.633Z,0.80
2022-08-21T02:58:25.424Z,0.80
2022-08-21T02:58:57.769Z,1.07
2022-08-21T02:59:30.090Z,0.80
2022-08-21T03:00:11.632Z,1.10
2022-08-21T03:00:44.803Z,1.00
2022-08-21T03:01:20.527Z,1.00
2022-08-21T03:01:52.913Z,0.90
2022-08-21T03:02:26.606Z,1.20
2022-08-21T03:03:02.142Z,0.97
2022-08-21T03:03:35.713Z,1.13
2022-08-21T03:04:08.981Z,1.20
2022-08-21T03:04:46.668Z,1.00
2022-08-21T03:05:20.039Z,1.00
2022-08-21T03:05:52.842Z,1.07
2022-08-21T03:06:29.877Z,1.03
2022-08-21T03:07:02.241Z,1.17
2022-08-21T03:07:35.577Z,0.90
2022-08-21T03:08:14.998Z,1.00
2022-08-21T03:08:47.422Z,1.10
2022-08-21T03:09:19.750Z,1.10
2022-08-21T03:09:55.235Z,1.00
2022-08-21T03:10:28.814Z,0.97
2022-08-21T03:11:02.117Z,1.20
2022-08-21T03:11:38.041Z,1.10
2022-08-21T03:12:10.384Z,0.90
2022-08-21T03:12:42.791Z,1.47
2022-08-21T03:13:18.906Z,0.97
2022-08-21T03:13:54.842Z,1.20
2022-08-21T03:14:27.313Z,1.13
2022-08-21T03:15:04.250Z,1.10
2022-08-21T03:15:41.297Z,0.90
2022-08-21T03:16:17.703Z,1.00
2022-08-21T03:16:53.371Z,1.13
2022-08-21T03:17:29.862Z,0.80
2022-08-21T03:18:05.809Z,0.73
2022-08-21T03:18:38.249Z,0.90
2022-08-21T03:19:14.031Z,0.87
2022-08-21T03:19:50.255Z,1.17
2022-08-21T03:20:28.408Z,0.90
2022-08-21T03:21:00.713Z,1.10
2022-08-21T03:21:36.707Z,0.87
2022-08-21T03:22:09.080Z,1.03
2022-08-21T03:22:41.491Z,0.90
2022-08-21T03:23:27.382Z,1.00
2022-08-21T03:24:05.725Z,0.90
2022-08-21T03:24:39.165Z,0.90
2022-08-21T03:25:19.117Z,1.10
2022-08-21T03:25:54.920Z,0.93
2022-08-21T03:26:31.526Z,0.90
2022-08-21T03:27:05.015Z,1.00
2022-08-21T03:27:42.030Z,1.13
2022-08-21T03:28:20.975Z,1.07
2022-08-21T03:28:53.303Z,1.00
2022-08-21T03:29:25.618Z,1.17
2022-08-21T03:30:01.306Z,1.03
2022-08-21T03:30:33.728Z,0.93
2022-08-21T03:31:09.783Z,1.00
2022-08-21T03:31:42.658Z,1.27
2022-08-21T03:32:15.242Z,1.20
2022-08-21T03:32:51.805Z,1.00
2022-08-21T03:33:24.218Z,0.80
2022-08-21T03:34:01.139Z,1.00
2022-08-21T03:34:33.802Z,0.80
2022-08-21T03:35:06.993Z,1.00
2022-08-21T03:35:42.793Z,1.00
2022-08-21T03:36:20.358Z,0.93
2022-08-21T03:36:54.195Z,1.20
2022-08-21T03:37:27.956Z,1.20
2022-08-21T03:38:00.470Z,1.10
2022-08-21T03:38:43.245Z,0.70
2022-08-21T03:39:18.626Z,0.70
2022-08-21T03:39:51.971Z,0.90
2022-08-21T03:40:26.790Z,1.00
2022-08-21T03:41:02.420Z,0.90
2022-08-21T03:41:35.195Z,0.90
2022-08-21T03:42:08.272Z,0.70
2022-08-21T03:42:43.205Z,0.77
2022-08-21T03:43:15.543Z,0.90
2022-08-21T03:43:47.905Z,0.90
2022-08-21T03:44:22.814Z,1.00
2022-08-21T03:44:55.125Z,0.80
2022-08-21T03:45:28.838Z,0.80
2022-08-21T03:46:04.945Z,0.97
2022-08-21T03:46:37.333Z,1.00
2022-08-21T03:47:10.742Z,0.90
2022-08-21T03:47:55.090Z,0.87
2022-08-21T03:48:27.405Z,0.90
2022-08-21T03:49:02.349Z,1.13
2022-08-21T03:49:34.709Z,1.10
2022-08-21T03:50:08.950Z,1.20
2022-08-21T03:50:47.855Z,1.30
2022-08-21T03:51:20.258Z,1.00
2022-08-21T03:51:59.190Z,1.20
2022-08-21T03:52:34.833Z,1.17
2022-08-21T03:53:07.367Z,0.83
2022-08-21T03:53:42.334Z,0.80
2022-08-21T03:54:17.377Z,1.03
2022-08-21T03:54:51.254Z,1.13
2022-08-21T03:55:24.286Z,1.50
2022-08-21T03:55:59.519Z,1.17
2022-08-21T03:56:32.145Z,1.30
2022-08-21T03:57:04.490Z,1.10
2022-08-21T03:57:39.485Z,0.97
2022-08-21T03:58:16.103Z,1.20
2022-08-21T03:58:49.439Z,1.10
2022-08-21T03:59:26.778Z,1.80
2022-08-21T03:59:59.414Z,1.57
2022-08-21T04:00:36.384Z,1.10
2022-08-21T04:01:11.718Z,1.63
2022-08-21T04:01:53.153Z,0.90
2022-08-21T04:02:26.325Z,1.10
2022-08-21T04:02:58.933Z,1.40
2022-08-21T04:03:33.989Z,1.27
2022-08-21T04:04:06.550Z,1.10
2022-08-21T04:04:46.340Z,1.27
2022-08-21T04:05:28.347Z,1.40
2022-08-21T04:06:01.077Z,1.37
2022-08-21T04:06:37.937Z,1.27
2022-08-21T04:07:10.401Z,1.90
2022-08-21T04:07:43.213Z,1.90
2022-08-21T04:08:19.709Z,2.10
2022-08-21T04:08:55.727Z,1.90
2022-08-21T04:09:28.735Z,1.30
2022-08-21T04:10:06.301Z,1.53
2022-08-21T04:10:41.619Z,1.87
2022-08-21T04:11:15.842Z,1.40
2022-08-21T04:11:51.005Z,1.50
2022-08-21T04:12:23.351Z,1.33
2022-08-21T04:12:59.114Z,0.97
2022-08-21T04:13:44.325Z,0.90
2022-08-21T04:14:17.428Z,0.90
2022-08-21T04:14:49.751Z,0.90
2022-08-21T04:15:25.394Z,1.10
2022-08-21T04:16:00.310Z,0.90
2022-08-21T04:16:35.241Z,0.57
2022-08-21T04:17:09.895Z,0.63
2022-08-21T04:17:43.463Z,0.73
2022-08-21T04:18:19.894Z,0.70
2022-08-21T04:18:52.226Z,0.70
2022-08-21T04:19:25.453Z,0.80
2022-08-21T04:20:00.391Z,0.90
2022-08-21T04:20:41.849Z,0.90
2022-08-21T04:21:20.258Z,0.70
2022-08-21T04:21:56.600Z,0.50
2022-08-21T04:22:28.974Z,0.90
2022-08-21T04:23:04.108Z,0.67
2022-08-21T04:23:39.368Z,0.70
2022-08-21T04:24:15.346Z,0.63
2022-08-21T04:24:50.951Z,0.60
2022-08-21T04:25:27.476Z,0.70
2022-08-21T04:26:03.829Z,0.70
2022-08-21T04:26:36.434Z,0.80
2022-08-21T04:27:08.837Z,0.60
2022-08-21T04:27:44.195Z,0.50
2022-08-21T04:28:16.850Z,0.57
2022-08-21T04:28:53.532Z,0.60
2022-08-21T04:29:25.990Z,0.57
2022-08-21T04:30:01.105Z,0.50
2022-08-21T04:30:40.441Z,0.60
2022-08-21T04:31:13.145Z,0.60
2022-08-21T04:31:48.116Z,0.60
2022-08-21T04:32:26.630Z,0.50
2022-08-21T04:32:59.752Z,0.50
2022-08-21T04:33:32.195Z,0.60
2022-08-21T04:34:07.263Z,0.60
2022-08-21T04:34:39.651Z,0.60
2022-08-21T04:35:16.370Z,0.60
2022-08-21T04:35:52.342Z,0.67
2022-08-21T04:36:25.502Z,0.70
2022-08-21T04:36:59.754Z,0.60
2022-08-21T04:37:42.114Z,0.60
2022-08-21T04:38:15.918Z,0.57
2022-08-21T04:38:49.278Z,0.70
2022-08-21T04:39:29.838Z,0.70
2022-08-21T04:40:02.772Z,0.80
2022-08-21T04:40:37.976Z,0.70
2022-08-21T04:41:10.553Z,0.90
2022-08-21T04:41:42.877Z,0.97
2022-08-21T04:42:18.487Z,0.80
2022-08-21T04:42:52.609Z,0.87
2022-08-21T04:43:27.582Z,1.03
2022-08-21T04:44:00.425Z,0.80
2022-08-21T04:44:32.837Z,0.73
2022-08-21T04:45:08.933Z,0.83
2022-08-21T04:45:43.139Z,0.87
2022-08-21T04:46:18.168Z,0.90
2022-08-21T04:46:50.606Z,1.20
2022-08-21T04:47:23.126Z,0.90
2022-08-21T04:48:18.832Z,0.90
2022-08-21T04:48:51.177Z,1.00
2022-08-21T04:49:23.516Z,0.97
2022-08-21T04:49:58.462Z,0.97
2022-08-21T04:50:35.695Z,0.90
2022-08-21T04:51:16.117Z,0.70
2022-08-21T04:52:01.103Z,0.93
2022-08-21T04:52:33.466Z,0.90
2022-08-21T04:53:09.774Z,0.93
2022-08-21T04:53:46.046Z,1.10
2022-08-21T04:54:21.429Z,0.80
2022-08-21T04:54:59.003Z,0.97
2022-08-21T04:55:31.717Z,0.80
2022-08-21T04:56:10.819Z,0.87
2022-08-21T04:56:44.691Z,1.00
2022-08-21T04:57:17.564Z,1.00
2022-08-21T04:57:54.643Z,0.90
2022-08-21T04:58:28.060Z,1.00
2022-08-21T04:59:06.366Z,1.10
2022-08-21T04:59:41.330Z,1.00
2022-08-21T05:00:15.589Z,1.00
2022-08-21T05:00:51.424Z,1.07
2022-08-21T05:01:25.629Z,1.13
2022-08-21T05:01:58.732Z,1.17
2022-08-21T05:02:34.413Z,0.70
2022-08-21T05:03:08.262Z,0.90
2022-08-21T05:03:42.273Z,1.00
2022-08-21T05:04:20.607Z,1.00
2022-08-21T05:04:54.683Z,1.17
2022-08-21T05:05:27.394Z,1.10
2022-08-21T05:06:02.402Z,0.80
2022-08-21T05:06:38.069Z,1.20
2022-08-21T05:07:14.485Z,1.20
2022-08-21T05:07:49.498Z,0.80
2022-08-21T05:08:24.299Z,1.40
2022-08-21T05:09:01.822Z,0.90
2022-08-21T05:09:37.501Z,1.10
2022-08-21T05:10:15.089Z,1.03
2022-08-21T05:10:47.574Z,1.00
2022-08-21T05:11:23.193Z,0.90
2022-08-21T05:11:59.509Z,1.00
2022-08-21T05:12:33.089Z,1.03
2022-08-21T05:13:09.318Z,0.93
2022-08-21T05:13:41.994Z,0.87
2022-08-21T05:14:14.682Z,0.80
2022-08-21T05:14:49.590Z,0.83
2022-08-21T05:15:22.134Z,0.80
2022-08-21T05:15:54.561Z,0.70
2022-08-21T05:16:31.669Z,0.70
2022-08-21T05:17:10.398Z,0.70
2022-08-21T05:17:43.087Z,0.87
2022-08-21T05:18:18.007Z,1.00
2022-08-21T05:18:50.483Z,0.83
2022-08-21T05:19:22.929Z,0.90
2022-08-21T05:19:57.867Z,0.87
2022-08-21T05:20:30.307Z,0.70
2022-08-21T05:21:02.640Z,0.60
2022-08-21T05:21:38.126Z,0.80
2022-08-21T05:22:10.610Z,0.70
2022-08-21T05:22:43.285Z,0.80
2022-08-21T05:23:19.006Z,1.00
2022-08-21T05:23:51.331Z,0.90
2022-08-21T05:24:23.637Z,0.90
2022-08-21T05:24:58.578Z,0.83
2022-08-21T05:25:33.535Z,0.70
2022-08-21T05:26:06.989Z,1.00
2022-08-21T05:26:52.902Z,0.80
2022-08-21T05:27:25.226Z,0.70
2022-08-21T05:28:02.801Z,0.80
2022-08-21T05:28:35.121Z,1.07
2022-08-21T05:29:11.858Z,0.90
2022-08-21T05:29:45.353Z,1.03
2022-08-21T05:30:20.381Z,0.60
2022-08-21T05:30:53.157Z,0.80
2022-08-21T05:31:25.775Z,0.60
2022-08-21T05:32:00.722Z,0.77
2022-08-21T05:32:33.065Z,0.80
2022-08-21T05:33:07.148Z,0.90
2022-08-21T05:33:42.101Z,0.90
2022-08-21T05:34:19.786Z,0.90
2022-08-21T05:34:52.617Z,0.70
2022-08-21T05:35:27.826Z,1.00
2022-08-21T05:36:00.165Z,1.00
2022-08-21T05:36:32.509Z,0.90
2022-08-21T05:37:07.923Z,0.80
2022-08-21T05:37:41.057Z,0.80
2022-08-21T05:38:17.653Z,0.90
2022-08-21T05:38:53.809Z,1.00
2022-08-21T05:39:26.166Z,1.07
2022-08-21T05:40:04.576Z,1.07
2022-08-21T05:40:56.006Z,1.33
2022-08-21T05:41:28.357Z,1.33
2022-08-21T05:42:00.710Z,1.37
2022-08-21T05:42:35.666Z,1.30
2022-08-21T05:43:08.002Z,1.13
2022-08-21T05:43:40.354Z,1.20
2022-08-21T05:44:15.316Z,1.20
2022-08-21T05:44:47.654Z,1.33
2022-08-21T05:45:41.835Z,1.20
2022-08-21T05:46:16.114Z,1.50
2022-08-21T05:46:48.421Z,1.10
2022-08-21T05:47:20.711Z,1.27
2022-08-21T05:47:55.616Z,1.40
2022-08-21T05:48:28.255Z,1.00
2022-08-21T05:49:00.579Z,1.50
2022-08-21T05:49:35.566Z,1.23
2022-08-21T05:50:08.822Z,1.03
2022-08-21T05:50:41.803Z,1.03
2022-08-21T05:51:18.919Z,1.50
2022-08-21T05:51:51.246Z,1.07
2022-08-21T05:52:23.770Z,1.00
2022-08-21T05:53:07.017Z,1.30
2022-08-21T05:53:40.935Z,1.87
2022-08-21T05:54:15.877Z,1.53
2022-08-21T05:54:48.301Z,1.30
2022-08-21T05:55:20.849Z,1.50
2022-08-21T05:55:58.418Z,1.30
2022-08-21T05:56:30.754Z,1.30
2022-08-21T05:57:03.063Z,1.30
2022-08-21T05:57:38.030Z,1.20
2022-08-21T05:58:10.353Z,1.70
2022-08-21T05:58:43.053Z,1.40
2022-08-21T05:59:18.027Z,1.00
2022-08-21T05:59:51.254Z,1.30
2022-08-21T06:00:24.216Z,1.50
2022-08-21T06:01:00.022Z,1.37
2022-08-21T06:01:32.969Z,1.37
2022-08-21T06:02:08.330Z,1.10
2022-08-21T06:02:40.697Z,1.13
2022-08-21T06:03:15.378Z,1.10
2022-08-21T06:03:50.291Z,1.27
2022-08-21T06:04:23.617Z,1.20
2022-08-21T06:04:57.762Z,1.20
2022-08-21T06:05:36.865Z,1.10
2022-08-21T06:06:10.379Z,1.20
2022-08-21T06:06:45.434Z,1.13
2022-08-21T06:07:17.801Z,1.40
2022-08-21T06:07:50.269Z,1.03
2022-08-21T06:08:25.655Z,1.30
2022-08-21T06:08:58.038Z,1.00
2022-08-21T06:09:30.381Z,0.90
2022-08-21T06:10:05.354Z,1.17
2022-08-21T06:10:37.842Z,1.27
2022-08-21T06:11:15.482Z,0.90
2022-08-21T06:11:47.848Z,1.20
2022-08-21T06:12:20.185Z,1.27
2022-08-21T06:12:58.091Z,0.90
2022-08-21T06:13:30.643Z,1.20
2022-08-21T06:14:03.207Z,0.93
2022-08-21T06:14:38.274Z,1.20
2022-08-21T06:15:11.029Z,1.20
2022-08-21T06:15:43.575Z,1.10
2022-08-21T06:16:19.965Z,1.20
2022-08-21T06:16:52.394Z,1.30
2022-08-21T06:17:24.737Z,1.30
2022-08-21T06:17:57.097Z,1.27
2022-08-21T06:18:32.069Z,1.37
2022-08-21T06:19:04.510Z,1.20
2022-08-21T06:19:37.374Z,1.10
2022-08-21T06:20:13.546Z,1.20
2022-08-21T06:20:45.903Z,1.47
2022-08-21T06:21:18.530Z,1.17
2022-08-21T06:21:53.482Z,1.13
2022-08-21T06:22:25.851Z,1.37
2022-08-21T06:22:58.393Z,1.20
2022-08-21T06:23:33.705Z,1.20
2022-08-21T06:24:06.485Z,1.30
2022-08-21T06:24:39.235Z,1.20
2022-08-21T06:25:14.162Z,1.03
2022-08-21T06:25:47.344Z,1.20
2022-08-21T06:26:24.915Z,1.40
2022-08-21T06:26:57.798Z,1.13
2022-08-21T06:27:30.342Z,1.30
2022-08-21T06:28:06.241Z,1.20
2022-08-21T06:28:38.698Z,1.20
2022-08-21T06:29:13.603Z,1.10
2022-08-21T06:29:48.911Z,1.27
2022-08-21T06:30:21.557Z,1.20
2022-08-21T06:30:53.977Z,1.40
2022-08-21T06:31:31.071Z,1.23
2022-08-21T06:32:04.085Z,1.00
2022-08-21T06:32:36.785Z,1.30
2022-08-21T06:33:12.094Z,1.00
2022-08-21T06:33:44.934Z,1.20
2022-08-21T06:34:17.669Z,1.30
2022-08-21T06:34:52.582Z,1.23
2022-08-21T06:35:25.694Z,1.10
2022-08-21T06:35:58.030Z,1.23
2022-08-21T06:36:32.994Z,1.20
2022-08-21T06:37:05.521Z,1.60
2022-08-21T06:37:37.917Z,1.37
2022-08-21T06:38:13.063Z,1.53
2022-08-21T06:38:51.283Z,1.40
2022-08-21T06:39:30.672Z,1.40
2022-08-21T06:40:06.246Z,1.40
2022-08-21T06:40:48.108Z,1.80
2022-08-21T06:41:26.529Z,1.57
2022-08-21T06:42:02.315Z,1.50
2022-08-21T06:42:36.091Z,1.63
2022-08-21T06:43:10.945Z,1.30
2022-08-21T06:43:50.309Z,1.20
2022-08-21T06:44:22.638Z,1.30
2022-08-21T06:44:57.697Z,1.53
2022-08-21T06:45:32.231Z,1.43
2022-08-21T06:46:05.349Z,1.50
2022-08-21T06:46:38.059Z,1.57
2022-08-21T06:47:13.013Z,1.33
2022-08-21T06:47:45.403Z,1.40
2022-08-21T06:48:19.517Z,1.43
2022-08-21T06:48:54.608Z,1.47
2022-08-21T06:49:27.066Z,1.50
2022-08-21T06:49:59.405Z,1.40
2022-08-21T06:50:35.010Z,1.53
2022-08-21T06:51:07.363Z,1.50
2022-08-21T06:51:39.758Z,1.33
2022-08-21T06:52:16.048Z,1.40
2022-08-21T06:52:48.389Z,1.47
2022-08-21T06:53:24.395Z,1.47
2022-08-21T06:53:57.153Z,1.80
2022-08-21T06:54:31.903Z,1.30
2022-08-21T06:55:08.634Z,1.70
2022-08-21T06:55:42.918Z,1.60
2022-08-21T06:56:15.365Z,1.30
2022-08-21T06:56:53.030Z,1.27
2022-08-21T06:57:26.687Z,1.27
2022-08-21T06:57:59.042Z,1.70
2022-08-21T06:58:34.268Z,1.50
2022-08-21T06:59:06.864Z,1.40
2022-08-21T06:59:39.209Z,1.43
2022-08-21T07:00:15.804Z,1.20
2022-08-21T07:00:50.053Z,1.60
2022-08-21T07:01:25.261Z,1.30
2022-08-21T07:02:00.363Z,1.80
2022-08-21T07:02:34.281Z,1.60
2022-08-21T07:03:06.619Z,1.47
2022-08-21T07:03:44.687Z,1.30
2022-08-21T07:04:17.024Z,1.27
2022-08-21T07:04:49.353Z,1.50
2022-08-21T07:05:24.546Z,1.43
2022-08-21T07:05:57.890Z,1.20
2022-08-21T07:06:30.265Z,1.53
2022-08-21T07:07:08.980Z,1.30
2022-08-21T07:07:41.307Z,1.47
2022-08-21T07:08:13.621Z,1.43
2022-08-21T07:08:48.561Z,1.50
2022-08-21T07:09:24.544Z,1.57
2022-08-21T07:09:57.250Z,1.20
2022-08-21T07:10:32.228Z,1.60
2022-08-21T07:11:08.675Z,1.23
2022-08-21T07:11:47.565Z,1.53
2022-08-21T07:12:22.827Z,1.50
2022-08-21T07:13:00.831Z,1.53
2022-08-21T07:13:36.850Z,1.60
2022-08-21T07:14:09.173Z,1.47
2022-08-21T07:14:41.522Z,2.07
2022-08-21T07:15:16.486Z,1.27
2022-08-21T07:15:49.338Z,1.47
2022-08-21T07:16:24.656Z,1.43
2022-08-21T07:16:57.056Z,1.17
2022-08-21T07:17:29.396Z,1.57
2022-08-21T07:18:04.462Z,1.43
2022-08-21T07:18:36.816Z,1.70
2022-08-21T07:19:09.135Z,1.60
2022-08-21T07:19:41.515Z,1.60
2022-08-21T07:20:16.461Z,1.80
2022-08-21T07:20:49.047Z,1.80
2022-08-21T07:21:25.616Z,1.30
2022-08-21T07:22:02.860Z,1.60
2022-08-21T07:22:37.478Z,1.53
2022-08-21T07:23:12.229Z,1.30
2022-08-21T07:23:48.937Z,1.50
2022-08-21T07:24:21.237Z,1.43
2022-08-21T07:24:53.571Z,1.70
2022-08-21T07:25:28.637Z,1.80
2022-08-21T07:26:01.725Z,1.70
2022-08-21T07:26:34.414Z,1.73
2022-08-21T07:27:09.943Z,1.57
2022-08-21T07:27:47.781Z,1.70
2022-08-21T07:28:20.307Z,1.70
2022-08-21T07:28:53.465Z,1.83
2022-08-21T07:29:28.367Z,1.40
2022-08-21T07:30:00.723Z,1.60
2022-08-21T07:30:33.105Z,1.50
2022-08-21T07:31:08.508Z,1.57
2022-08-21T07:31:40.911Z,1.40
2022-08-21T07:32:13.410Z,1.63
2022-08-21T07:32:50.332Z,1.60
2022-08-21T07:33:22.981Z,1.80
2022-08-21T07:33:58.190Z,1.90
2022-08-21T07:34:31.182Z,1.50
2022-08-21T07:35:04.200Z,1.90
2022-08-21T07:35:39.121Z,1.70
2022-08-21T07:36:11.448Z,1.73
2022-08-21T07:36:43.909Z,1.70
2022-08-21T07:37:18.909Z,1.70
2022-08-21T07:37:52.760Z,1.87
2022-08-21T07:38:25.382Z,1.57
2022-08-21T07:39:00.502Z,1.67
2022-08-21T07:39:32.789Z,1.90
2022-08-21T07:40:06.721Z,1.60
2022-08-21T07:40:42.361Z,1.80
2022-08-21T07:41:17.366Z,1.53